sensor_id;sensor_type;location;lat;lon;timestamp;P1;durP1;ratioP1;P2;durP2;ratioP2
12774;SDS011;6451;42.630;23.382;2023-05-21T00:01:19;9.63;;;6.68;;
12774;SDS011;6451;42.630;23.382;2023-05-21T00:03:46;6.50;;;5.78;;
12774;SDS011;6451;42.630;23.382;2023-05-21T00:06:14;7.88;;;6.10;;
12774;SDS011;6451;42.630;23.382;2023-05-21T00:08:41;6.88;;;5.97;;
12774;SDS011;6451;42.630;23.382;2023-05-21T00:11:08;9.63;;;5.87;;
12774;SDS011;6451;42.630;23.382;2023-05-21T00:13:37;10.70;;;6.00;;
12774;SDS011;6451;42.630;23.382;2023-05-21T00:16:04;8.03;;;5.80;;
12774;SDS011;6451;42.630;23.382;2023-05-21T00:18:32;9.50;;;5.87;;
12774;SDS011;6451;42.630;23.382;2023-05-21T00:20:59;7.93;;;5.83;;
12774;SDS011;6451;42.630;23.382;2023-05-21T00:23:26;8.57;;;6.30;;
12774;SDS011;6451;42.630;23.382;2023-05-21T00:25:56;6.32;;;5.72;;
12774;SDS011;6451;42.630;23.382;2023-05-21T00:28:24;9.70;;;5.90;;
12774;SDS011;6451;42.630;23.382;2023-05-21T00:30:53;7.20;;;5.27;;
12774;SDS011;6451;42.630;23.382;2023-05-21T00:33:20;7.07;;;6.20;;
12774;SDS011;6451;42.630;23.382;2023-05-21T00:35:50;10.70;;;6.03;;
12774;SDS011;6451;42.630;23.382;2023-05-21T00:38:17;10.07;;;6.10;;
12774;SDS011;6451;42.630;23.382;2023-05-21T00:40:44;12.07;;;5.67;;
12774;SDS011;6451;42.630;23.382;2023-05-21T00:43:11;7.50;;;5.80;;
12774;SDS011;6451;42.630;23.382;2023-05-21T00:45:39;8.73;;;6.07;;
12774;SDS011;6451;42.630;23.382;2023-05-21T00:48:09;6.50;;;5.90;;
12774;SDS011;6451;42.630;23.382;2023-05-21T00:50:39;9.33;;;5.93;;
12774;SDS011;6451;42.630;23.382;2023-05-21T00:53:07;8.17;;;6.00;;
12774;SDS011;6451;42.630;23.382;2023-05-21T00:55:34;10.10;;;6.23;;
12774;SDS011;6451;42.630;23.382;2023-05-21T00:58:02;7.53;;;5.97;;
12774;SDS011;6451;42.630;23.382;2023-05-21T01:00:29;10.03;;;6.10;;
12774;SDS011;6451;42.630;23.382;2023-05-21T01:02:58;9.37;;;5.73;;
12774;SDS011;6451;42.630;23.382;2023-05-21T01:05:27;9.20;;;5.67;;
12774;SDS011;6451;42.630;23.382;2023-05-21T01:07:54;6.33;;;5.73;;
12774;SDS011;6451;42.630;23.382;2023-05-21T01:10:23;8.47;;;5.90;;
12774;SDS011;6451;42.630;23.382;2023-05-21T01:12:50;8.73;;;5.73;;
12774;SDS011;6451;42.630;23.382;2023-05-21T01:15:18;7.13;;;5.97;;
12774;SDS011;6451;42.630;23.382;2023-05-21T01:17:45;7.23;;;5.67;;
12774;SDS011;6451;42.630;23.382;2023-05-21T01:20:14;8.83;;;5.87;;
12774;SDS011;6451;42.630;23.382;2023-05-21T01:22:48;7.30;;;5.67;;
12774;SDS011;6451;42.630;23.382;2023-05-21T01:25:17;7.53;;;6.00;;
12774;SDS011;6451;42.630;23.382;2023-05-21T01:27:45;7.20;;;5.90;;
12774;SDS011;6451;42.630;23.382;2023-05-21T01:30:13;10.17;;;5.93;;
12774;SDS011;6451;42.630;23.382;2023-05-21T01:32:43;10.27;;;6.47;;
12774;SDS011;6451;42.630;23.382;2023-05-21T01:35:16;9.33;;;6.50;;
12774;SDS011;6451;42.630;23.382;2023-05-21T01:37:50;9.27;;;6.33;;
12774;SDS011;6451;42.630;23.382;2023-05-21T01:40:21;7.10;;;6.23;;
12774;SDS011;6451;42.630;23.382;2023-05-21T01:42:52;8.07;;;5.97;;
12774;SDS011;6451;42.630;23.382;2023-05-21T01:45:20;6.40;;;5.70;;
12774;SDS011;6451;42.630;23.382;2023-05-21T01:47:49;6.50;;;5.90;;
12774;SDS011;6451;42.630;23.382;2023-05-21T01:50:19;6.97;;;6.10;;
12774;SDS011;6451;42.630;23.382;2023-05-21T01:52:50;8.43;;;5.77;;
12774;SDS011;6451;42.630;23.382;2023-05-21T01:55:18;7.63;;;6.43;;
12774;SDS011;6451;42.630;23.382;2023-05-21T01:57:48;6.67;;;6.03;;
12774;SDS011;6451;42.630;23.382;2023-05-21T02:00:16;7.87;;;5.87;;
12774;SDS011;6451;42.630;23.382;2023-05-21T02:02:44;11.47;;;6.33;;
12774;SDS011;6451;42.630;23.382;2023-05-21T02:05:11;7.80;;;6.60;;
12774;SDS011;6451;42.630;23.382;2023-05-21T02:07:38;9.50;;;6.63;;
12774;SDS011;6451;42.630;23.382;2023-05-21T02:10:07;7.10;;;6.40;;
12774;SDS011;6451;42.630;23.382;2023-05-21T02:12:34;8.87;;;6.17;;
12774;SDS011;6451;42.630;23.382;2023-05-21T02:15:02;9.20;;;6.87;;
12774;SDS011;6451;42.630;23.382;2023-05-21T02:17:30;7.40;;;6.00;;
12774;SDS011;6451;42.630;23.382;2023-05-21T02:19:58;9.30;;;6.10;;
12774;SDS011;6451;42.630;23.382;2023-05-21T02:22:32;12.43;;;9.20;;
12774;SDS011;6451;42.630;23.382;2023-05-21T02:24:59;12.43;;;10.47;;
12774;SDS011;6451;42.630;23.382;2023-05-21T02:27:27;12.73;;;10.77;;
12774;SDS011;6451;42.630;23.382;2023-05-21T02:29:56;13.33;;;11.17;;
12774;SDS011;6451;42.630;23.382;2023-05-21T02:32:22;13.10;;;11.27;;
12774;SDS011;6451;42.630;23.382;2023-05-21T02:34:49;14.43;;;11.63;;
12774;SDS011;6451;42.630;23.382;2023-05-21T02:37:17;16.10;;;13.47;;
12774;SDS011;6451;42.630;23.382;2023-05-21T02:39:44;16.03;;;13.57;;
12774;SDS011;6451;42.630;23.382;2023-05-21T02:42:12;14.87;;;13.33;;
12774;SDS011;6451;42.630;23.382;2023-05-21T02:44:40;16.83;;;12.93;;
12774;SDS011;6451;42.630;23.382;2023-05-21T02:47:07;16.67;;;13.27;;
12774;SDS011;6451;42.630;23.382;2023-05-21T02:49:34;17.10;;;13.13;;
12774;SDS011;6451;42.630;23.382;2023-05-21T02:52:01;16.53;;;13.70;;
12774;SDS011;6451;42.630;23.382;2023-05-21T02:54:28;16.90;;;13.90;;
12774;SDS011;6451;42.630;23.382;2023-05-21T02:56:55;19.67;;;12.80;;
12774;SDS011;6451;42.630;23.382;2023-05-21T02:59:22;15.70;;;12.97;;
12774;SDS011;6451;42.630;23.382;2023-05-21T03:01:50;15.10;;;12.13;;
12774;SDS011;6451;42.630;23.382;2023-05-21T03:04:17;13.27;;;11.90;;
12774;SDS011;6451;42.630;23.382;2023-05-21T03:06:46;15.23;;;12.17;;
12774;SDS011;6451;42.630;23.382;2023-05-21T03:09:14;15.60;;;11.63;;
12774;SDS011;6451;42.630;23.382;2023-05-21T03:11:42;15.73;;;10.67;;
12774;SDS011;6451;42.630;23.382;2023-05-21T03:14:08;12.50;;;11.00;;
12774;SDS011;6451;42.630;23.382;2023-05-21T03:16:36;13.30;;;11.90;;
12774;SDS011;6451;42.630;23.382;2023-05-21T03:19:07;17.53;;;11.43;;
12774;SDS011;6451;42.630;23.382;2023-05-21T03:21:34;16.40;;;12.10;;
12774;SDS011;6451;42.630;23.382;2023-05-21T03:24:01;18.03;;;11.80;;
12774;SDS011;6451;42.630;23.382;2023-05-21T03:26:28;15.73;;;13.13;;
12774;SDS011;6451;42.630;23.382;2023-05-21T03:28:55;14.27;;;12.40;;
12774;SDS011;6451;42.630;23.382;2023-05-21T03:31:22;17.30;;;13.13;;
12774;SDS011;6451;42.630;23.382;2023-05-21T03:33:50;20.87;;;12.93;;
12774;SDS011;6451;42.630;23.382;2023-05-21T03:36:19;16.60;;;12.03;;
12774;SDS011;6451;42.630;23.382;2023-05-21T03:38:46;17.00;;;11.47;;
12774;SDS011;6451;42.630;23.382;2023-05-21T03:41:13;13.20;;;10.73;;
12774;SDS011;6451;42.630;23.382;2023-05-21T03:43:39;10.10;;;9.10;;
12774;SDS011;6451;42.630;23.382;2023-05-21T03:46:07;11.57;;;9.10;;
12774;SDS011;6451;42.630;23.382;2023-05-21T03:48:34;11.93;;;8.63;;
12774;SDS011;6451;42.630;23.382;2023-05-21T03:51:01;9.47;;;8.27;;
12774;SDS011;6451;42.630;23.382;2023-05-21T03:53:32;9.70;;;7.43;;
12774;SDS011;6451;42.630;23.382;2023-05-21T03:55:59;10.25;;;7.25;;
12774;SDS011;6451;42.630;23.382;2023-05-21T03:58:27;12.20;;;7.25;;
12774;SDS011;6451;42.630;23.382;2023-05-21T04:00:54;11.38;;;7.75;;
12774;SDS011;6451;42.630;23.382;2023-05-21T04:03:21;10.65;;;7.47;;
12774;SDS011;6451;42.630;23.382;2023-05-21T04:05:48;13.77;;;7.70;;
12774;SDS011;6451;42.630;23.382;2023-05-21T04:08:15;10.47;;;7.67;;
12774;SDS011;6451;42.630;23.382;2023-05-21T04:10:43;8.68;;;7.25;;
12774;SDS011;6451;42.630;23.382;2023-05-21T04:13:10;8.90;;;6.53;;
12774;SDS011;6451;42.630;23.382;2023-05-21T04:15:37;8.75;;;6.72;;
12774;SDS011;6451;42.630;23.382;2023-05-21T04:18:04;9.93;;;6.88;;
12774;SDS011;6451;42.630;23.382;2023-05-21T04:20:31;9.48;;;7.13;;
12774;SDS011;6451;42.630;23.382;2023-05-21T04:22:58;7.93;;;6.18;;
12774;SDS011;6451;42.630;23.382;2023-05-21T04:25:25;7.57;;;6.35;;
12774;SDS011;6451;42.630;23.382;2023-05-21T04:27:53;8.70;;;6.28;;
12774;SDS011;6451;42.630;23.382;2023-05-21T04:30:21;8.82;;;5.93;;
12774;SDS011;6451;42.630;23.382;2023-05-21T04:32:48;8.90;;;5.82;;
12774;SDS011;6451;42.630;23.382;2023-05-21T04:35:16;7.30;;;5.60;;
12774;SDS011;6451;42.630;23.382;2023-05-21T04:37:43;10.32;;;6.22;;
12774;SDS011;6451;42.630;23.382;2023-05-21T04:40:11;12.40;;;10.13;;
12774;SDS011;6451;42.630;23.382;2023-05-21T04:42:42;11.93;;;9.30;;
12774;SDS011;6451;42.630;23.382;2023-05-21T04:45:12;10.25;;;7.28;;
12774;SDS011;6451;42.630;23.382;2023-05-21T04:47:39;10.95;;;6.90;;
12774;SDS011;6451;42.630;23.382;2023-05-21T04:50:07;6.28;;;5.57;;
12774;SDS011;6451;42.630;23.382;2023-05-21T04:52:34;5.50;;;4.88;;
12774;SDS011;6451;42.630;23.382;2023-05-21T04:55:02;7.47;;;5.03;;
12774;SDS011;6451;42.630;23.382;2023-05-21T04:57:29;8.43;;;5.28;;
12774;SDS011;6451;42.630;23.382;2023-05-21T04:59:56;10.00;;;5.30;;
12774;SDS011;6451;42.630;23.382;2023-05-21T05:02:25;6.75;;;4.68;;
12774;SDS011;6451;42.630;23.382;2023-05-21T05:04:51;18.20;;;10.73;;
12774;SDS011;6451;42.630;23.382;2023-05-21T05:07:18;11.52;;;7.05;;
12774;SDS011;6451;42.630;23.382;2023-05-21T05:09:45;7.57;;;5.82;;
12774;SDS011;6451;42.630;23.382;2023-05-21T05:12:12;9.23;;;6.63;;
12774;SDS011;6451;42.630;23.382;2023-05-21T05:14:39;8.77;;;6.53;;
12774;SDS011;6451;42.630;23.382;2023-05-21T05:17:06;10.75;;;7.03;;
12774;SDS011;6451;42.630;23.382;2023-05-21T05:19:36;8.77;;;6.65;;
12774;SDS011;6451;42.630;23.382;2023-05-21T05:22:03;7.20;;;4.88;;
12774;SDS011;6451;42.630;23.382;2023-05-21T05:24:30;9.77;;;5.00;;
12774;SDS011;6451;42.630;23.382;2023-05-21T05:26:57;5.55;;;4.70;;
12774;SDS011;6451;42.630;23.382;2023-05-21T05:29:25;8.40;;;5.25;;
12774;SDS011;6451;42.630;23.382;2023-05-21T05:31:51;5.43;;;4.70;;
12774;SDS011;6451;42.630;23.382;2023-05-21T05:34:18;6.82;;;4.70;;
12774;SDS011;6451;42.630;23.382;2023-05-21T05:36:47;6.00;;;5.18;;
12774;SDS011;6451;42.630;23.382;2023-05-21T05:39:14;9.73;;;4.55;;
12774;SDS011;6451;42.630;23.382;2023-05-21T05:41:41;5.20;;;4.60;;
12774;SDS011;6451;42.630;23.382;2023-05-21T05:44:08;8.38;;;4.80;;
12774;SDS011;6451;42.630;23.382;2023-05-21T05:46:35;6.00;;;4.05;;
12774;SDS011;6451;42.630;23.382;2023-05-21T05:49:01;5.10;;;4.35;;
12774;SDS011;6451;42.630;23.382;2023-05-21T05:51:28;6.38;;;4.55;;
12774;SDS011;6451;42.630;23.382;2023-05-21T05:53:57;7.53;;;4.80;;
12774;SDS011;6451;42.630;23.382;2023-05-21T05:56:24;5.50;;;4.20;;
12774;SDS011;6451;42.630;23.382;2023-05-21T05:58:51;9.65;;;4.82;;
12774;SDS011;6451;42.630;23.382;2023-05-21T06:01:18;7.88;;;4.32;;
12774;SDS011;6451;42.630;23.382;2023-05-21T06:03:48;7.07;;;4.78;;
12774;SDS011;6451;42.630;23.382;2023-05-21T06:06:15;9.95;;;5.50;;
12774;SDS011;6451;42.630;23.382;2023-05-21T06:08:42;9.85;;;5.00;;
12774;SDS011;6451;42.630;23.382;2023-05-21T06:11:11;7.72;;;4.78;;
12774;SDS011;6451;42.630;23.382;2023-05-21T06:13:41;7.70;;;4.97;;
12774;SDS011;6451;42.630;23.382;2023-05-21T06:16:08;7.03;;;4.80;;
12774;SDS011;6451;42.630;23.382;2023-05-21T06:18:35;6.80;;;4.75;;
12774;SDS011;6451;42.630;23.382;2023-05-21T06:21:02;10.60;;;5.10;;
12774;SDS011;6451;42.630;23.382;2023-05-21T06:23:29;7.50;;;4.90;;
12774;SDS011;6451;42.630;23.382;2023-05-21T06:25:57;7.88;;;4.68;;
12774;SDS011;6451;42.630;23.382;2023-05-21T06:28:25;6.15;;;5.05;;
12774;SDS011;6451;42.630;23.382;2023-05-21T06:30:52;8.07;;;5.03;;
12774;SDS011;6451;42.630;23.382;2023-05-21T06:33:19;7.10;;;4.60;;
12774;SDS011;6451;42.630;23.382;2023-05-21T06:35:47;5.78;;;4.75;;
12774;SDS011;6451;42.630;23.382;2023-05-21T06:38:14;9.25;;;5.05;;
12774;SDS011;6451;42.630;23.382;2023-05-21T06:40:41;9.13;;;5.10;;
12774;SDS011;6451;42.630;23.382;2023-05-21T06:43:08;8.20;;;4.95;;
12774;SDS011;6451;42.630;23.382;2023-05-21T06:45:37;10.23;;;5.00;;
12774;SDS011;6451;42.630;23.382;2023-05-21T06:48:04;7.40;;;4.95;;
12774;SDS011;6451;42.630;23.382;2023-05-21T06:50:31;9.07;;;5.28;;
12774;SDS011;6451;42.630;23.382;2023-05-21T06:52:58;6.35;;;5.20;;
12774;SDS011;6451;42.630;23.382;2023-05-21T06:55:25;7.85;;;5.20;;
12774;SDS011;6451;42.630;23.382;2023-05-21T06:57:52;7.93;;;4.70;;
12774;SDS011;6451;42.630;23.382;2023-05-21T07:00:19;7.13;;;5.00;;
12774;SDS011;6451;42.630;23.382;2023-05-21T07:02:48;7.35;;;5.18;;
12774;SDS011;6451;42.630;23.382;2023-05-21T07:05:15;6.90;;;4.47;;
12774;SDS011;6451;42.630;23.382;2023-05-21T07:07:42;9.25;;;4.70;;
12774;SDS011;6451;42.630;23.382;2023-05-21T07:10:09;6.70;;;4.57;;
12774;SDS011;6451;42.630;23.382;2023-05-21T07:12:36;8.30;;;5.00;;
12774;SDS011;6451;42.630;23.382;2023-05-21T07:15:05;8.75;;;4.43;;
12774;SDS011;6451;42.630;23.382;2023-05-21T07:17:33;7.60;;;4.20;;
12774;SDS011;6451;42.630;23.382;2023-05-21T07:20:02;7.43;;;4.70;;
12774;SDS011;6451;42.630;23.382;2023-05-21T07:22:31;5.00;;;4.20;;
12774;SDS011;6451;42.630;23.382;2023-05-21T07:24:58;6.95;;;4.75;;
12774;SDS011;6451;42.630;23.382;2023-05-21T07:27:25;6.75;;;4.47;;
12774;SDS011;6451;42.630;23.382;2023-05-21T07:29:52;8.07;;;4.60;;
12774;SDS011;6451;42.630;23.382;2023-05-21T07:32:19;8.20;;;4.55;;
12774;SDS011;6451;42.630;23.382;2023-05-21T07:34:46;5.60;;;4.22;;
12774;SDS011;6451;42.630;23.382;2023-05-21T07:37:14;6.93;;;4.78;;
12774;SDS011;6451;42.630;23.382;2023-05-21T07:39:41;7.80;;;4.75;;
12774;SDS011;6451;42.630;23.382;2023-05-21T07:42:08;6.00;;;4.70;;
12774;SDS011;6451;42.630;23.382;2023-05-21T07:44:36;8.75;;;5.10;;
12774;SDS011;6451;42.630;23.382;2023-05-21T07:47:03;7.30;;;4.68;;
12774;SDS011;6451;42.630;23.382;2023-05-21T07:49:30;5.88;;;4.32;;
12774;SDS011;6451;42.630;23.382;2023-05-21T07:51:57;8.48;;;5.10;;
12774;SDS011;6451;42.630;23.382;2023-05-21T07:54:31;11.55;;;6.20;;
12774;SDS011;6451;42.630;23.382;2023-05-21T07:56:58;12.13;;;5.80;;
12774;SDS011;6451;42.630;23.382;2023-05-21T07:59:25;5.75;;;4.90;;
12774;SDS011;6451;42.630;23.382;2023-05-21T08:01:52;9.57;;;4.93;;
12774;SDS011;6451;42.630;23.382;2023-05-21T08:04:19;7.32;;;5.25;;
12774;SDS011;6451;42.630;23.382;2023-05-21T08:06:46;8.43;;;4.82;;
12774;SDS011;6451;42.630;23.382;2023-05-21T08:09:13;7.57;;;6.65;;
12774;SDS011;6451;42.630;23.382;2023-05-21T08:11:42;7.15;;;4.93;;
12774;SDS011;6451;42.630;23.382;2023-05-21T08:14:09;6.80;;;4.07;;
12774;SDS011;6451;42.630;23.382;2023-05-21T08:16:45;6.93;;;4.07;;
12774;SDS011;6451;42.630;23.382;2023-05-21T08:19:12;6.45;;;4.82;;
12774;SDS011;6451;42.630;23.382;2023-05-21T08:21:39;10.30;;;4.35;;
12774;SDS011;6451;42.630;23.382;2023-05-21T08:24:06;6.53;;;3.90;;
12774;SDS011;6451;42.630;23.382;2023-05-21T08:26:33;8.77;;;4.35;;
12774;SDS011;6451;42.630;23.382;2023-05-21T08:29:02;6.45;;;3.70;;
12774;SDS011;6451;42.630;23.382;2023-05-21T08:31:28;8.45;;;4.88;;
12774;SDS011;6451;42.630;23.382;2023-05-21T08:33:55;5.25;;;4.13;;
12774;SDS011;6451;42.630;23.382;2023-05-21T08:36:23;7.53;;;4.80;;
12774;SDS011;6451;42.630;23.382;2023-05-21T08:38:50;6.28;;;4.70;;
12774;SDS011;6451;42.630;23.382;2023-05-21T08:41:17;8.98;;;4.40;;
12774;SDS011;6451;42.630;23.382;2023-05-21T08:43:49;9.52;;;6.22;;
12774;SDS011;6451;42.630;23.382;2023-05-21T08:46:22;4.93;;;3.70;;
12774;SDS011;6451;42.630;23.382;2023-05-21T08:48:50;5.90;;;4.60;;
12774;SDS011;6451;42.630;23.382;2023-05-21T08:51:20;5.78;;;4.38;;
12774;SDS011;6451;42.630;23.382;2023-05-21T08:53:47;7.03;;;4.38;;
12774;SDS011;6451;42.630;23.382;2023-05-21T08:56:17;7.07;;;4.50;;
12774;SDS011;6451;42.630;23.382;2023-05-21T08:58:45;5.53;;;4.07;;
12774;SDS011;6451;42.630;23.382;2023-05-21T09:01:12;8.95;;;4.18;;
12774;SDS011;6451;42.630;23.382;2023-05-21T09:03:44;7.07;;;4.15;;
12774;SDS011;6451;42.630;23.382;2023-05-21T09:06:12;5.07;;;3.85;;
12774;SDS011;6451;42.630;23.382;2023-05-21T09:08:41;8.15;;;3.92;;
12774;SDS011;6451;42.630;23.382;2023-05-21T09:11:10;7.40;;;3.90;;
12774;SDS011;6451;42.630;23.382;2023-05-21T09:13:38;6.90;;;3.65;;
12774;SDS011;6451;42.630;23.382;2023-05-21T09:16:07;8.73;;;4.15;;
12774;SDS011;6451;42.630;23.382;2023-05-21T09:18:35;7.53;;;3.53;;
12774;SDS011;6451;42.630;23.382;2023-05-21T09:21:22;7.43;;;3.72;;
12774;SDS011;6451;42.630;23.382;2023-05-21T09:23:54;5.60;;;3.95;;
12774;SDS011;6451;42.630;23.382;2023-05-21T09:26:21;7.13;;;3.63;;
12774;SDS011;6451;42.630;23.382;2023-05-21T09:28:49;6.55;;;3.17;;
12774;SDS011;6451;42.630;23.382;2023-05-21T09:31:16;5.32;;;3.45;;
12774;SDS011;6451;42.630;23.382;2023-05-21T09:33:46;6.53;;;3.33;;
12774;SDS011;6451;42.630;23.382;2023-05-21T09:36:16;4.40;;;3.70;;
12774;SDS011;6451;42.630;23.382;2023-05-21T09:38:45;8.00;;;4.47;;
12774;SDS011;6451;42.630;23.382;2023-05-21T09:41:13;6.85;;;3.70;;
12774;SDS011;6451;42.630;23.382;2023-05-21T09:43:40;7.43;;;3.75;;
12774;SDS011;6451;42.630;23.382;2023-05-21T09:46:08;7.50;;;3.40;;
12774;SDS011;6451;42.630;23.382;2023-05-21T09:48:35;4.28;;;3.38;;
12774;SDS011;6451;42.630;23.382;2023-05-21T09:51:08;4.80;;;3.58;;
12774;SDS011;6451;42.630;23.382;2023-05-21T09:53:42;4.85;;;3.25;;
12774;SDS011;6451;42.630;23.382;2023-05-21T09:56:10;9.27;;;3.50;;
12774;SDS011;6451;42.630;23.382;2023-05-21T09:58:38;7.25;;;3.00;;
12774;SDS011;6451;42.630;23.382;2023-05-21T10:01:05;6.03;;;3.47;;
12774;SDS011;6451;42.630;23.382;2023-05-21T10:03:34;5.97;;;3.40;;
12774;SDS011;6451;42.630;23.382;2023-05-21T10:06:05;5.60;;;3.50;;
12774;SDS011;6451;42.630;23.382;2023-05-21T10:08:34;7.78;;;3.60;;
12774;SDS011;6451;42.630;23.382;2023-05-21T10:11:04;11.10;;;3.58;;
12774;SDS011;6451;42.630;23.382;2023-05-21T10:13:31;5.20;;;3.30;;
12774;SDS011;6451;42.630;23.382;2023-05-21T10:16:04;5.18;;;3.50;;
12774;SDS011;6451;42.630;23.382;2023-05-21T10:18:32;8.48;;;3.88;;
12774;SDS011;6451;42.630;23.382;2023-05-21T10:20:59;5.88;;;3.78;;
12774;SDS011;6451;42.630;23.382;2023-05-21T10:23:27;7.03;;;3.45;;
12774;SDS011;6451;42.630;23.382;2023-05-21T10:25:55;8.45;;;3.60;;
12774;SDS011;6451;42.630;23.382;2023-05-21T10:28:25;5.20;;;3.90;;
12774;SDS011;6451;42.630;23.382;2023-05-21T10:30:54;5.78;;;3.60;;
12774;SDS011;6451;42.630;23.382;2023-05-21T10:33:22;6.03;;;3.40;;
12774;SDS011;6451;42.630;23.382;2023-05-21T10:35:49;9.07;;;4.65;;
12774;SDS011;6451;42.630;23.382;2023-05-21T10:38:17;7.15;;;4.05;;
12774;SDS011;6451;42.630;23.382;2023-05-21T10:40:45;7.50;;;3.90;;
12774;SDS011;6451;42.630;23.382;2023-05-21T10:43:20;5.47;;;4.15;;
12774;SDS011;6451;42.630;23.382;2023-05-21T10:46:05;9.23;;;3.47;;
12774;SDS011;6451;42.630;23.382;2023-05-21T10:48:57;8.40;;;3.55;;
12774;SDS011;6451;42.630;23.382;2023-05-21T10:51:36;4.45;;;3.50;;
12774;SDS011;6451;42.630;23.382;2023-05-21T10:54:26;6.10;;;3.63;;
12774;SDS011;6451;42.630;23.382;2023-05-21T10:57:13;7.82;;;3.75;;
12774;SDS011;6451;42.630;23.382;2023-05-21T10:59:52;6.88;;;3.72;;
12774;SDS011;6451;42.630;23.382;2023-05-21T11:02:21;3.97;;;3.30;;
12774;SDS011;6451;42.630;23.382;2023-05-21T11:04:56;8.88;;;4.28;;
12774;SDS011;6451;42.630;23.382;2023-05-21T11:10:30;9.18;;;3.70;;
12774;SDS011;6451;42.630;23.382;2023-05-21T11:13:05;4.82;;;3.38;;
12774;SDS011;6451;42.630;23.382;2023-05-21T11:21:27;7.90;;;4.05;;
12774;SDS011;6451;42.630;23.382;2023-05-21T11:23:55;7.55;;;3.80;;
12774;SDS011;6451;42.630;23.382;2023-05-21T11:26:27;6.20;;;3.63;;
12774;SDS011;6451;42.630;23.382;2023-05-21T11:29:05;6.07;;;3.60;;
12774;SDS011;6451;42.630;23.382;2023-05-21T11:31:35;6.05;;;3.67;;
12774;SDS011;6451;42.630;23.382;2023-05-21T11:34:10;4.57;;;3.63;;
12774;SDS011;6451;42.630;23.382;2023-05-21T11:36:38;7.25;;;3.47;;
12774;SDS011;6451;42.630;23.382;2023-05-21T11:39:09;6.15;;;3.80;;
12774;SDS011;6451;42.630;23.382;2023-05-21T11:41:51;6.45;;;3.63;;
12774;SDS011;6451;42.630;23.382;2023-05-21T11:44:20;5.82;;;4.03;;
12774;SDS011;6451;42.630;23.382;2023-05-21T11:47:04;7.72;;;4.03;;
12774;SDS011;6451;42.630;23.382;2023-05-21T11:49:33;4.40;;;3.50;;
12774;SDS011;6451;42.630;23.382;2023-05-21T11:52:00;7.35;;;4.00;;
12774;SDS011;6451;42.630;23.382;2023-05-21T11:54:28;10.73;;;3.80;;
12774;SDS011;6451;42.630;23.382;2023-05-21T11:56:58;6.85;;;3.92;;
12774;SDS011;6451;42.630;23.382;2023-05-21T11:59:25;6.28;;;3.65;;
12774;SDS011;6451;42.630;23.382;2023-05-21T12:01:52;7.43;;;4.40;;
12774;SDS011;6451;42.630;23.382;2023-05-21T12:04:22;8.23;;;4.00;;
12774;SDS011;6451;42.630;23.382;2023-05-21T12:06:49;5.45;;;3.92;;
12774;SDS011;6451;42.630;23.382;2023-05-21T12:09:17;8.43;;;3.55;;
12774;SDS011;6451;42.630;23.382;2023-05-21T12:11:44;8.80;;;3.95;;
12774;SDS011;6451;42.630;23.382;2023-05-21T12:14:11;5.88;;;3.72;;
12774;SDS011;6451;42.630;23.382;2023-05-21T12:16:39;6.50;;;4.07;;
12774;SDS011;6451;42.630;23.382;2023-05-21T12:19:06;8.68;;;4.10;;
12774;SDS011;6451;42.630;23.382;2023-05-21T12:21:34;4.43;;;3.50;;
12774;SDS011;6451;42.630;23.382;2023-05-21T12:24:01;7.47;;;5.72;;
12774;SDS011;6451;42.630;23.382;2023-05-21T12:26:28;9.02;;;4.78;;
12774;SDS011;6451;42.630;23.382;2023-05-21T12:28:58;9.63;;;4.50;;
12774;SDS011;6451;42.630;23.382;2023-05-21T12:31:25;13.43;;;6.20;;
12774;SDS011;6451;42.630;23.382;2023-05-21T12:33:52;7.75;;;4.57;;
12774;SDS011;6451;42.630;23.382;2023-05-21T12:36:21;5.90;;;3.97;;
12774;SDS011;6451;42.630;23.382;2023-05-21T12:38:50;8.90;;;4.70;;
12774;SDS011;6451;42.630;23.382;2023-05-21T12:41:17;6.95;;;4.43;;
12774;SDS011;6451;42.630;23.382;2023-05-21T12:43:48;7.43;;;4.07;;
12774;SDS011;6451;42.630;23.382;2023-05-21T12:46:16;7.50;;;4.15;;
12774;SDS011;6451;42.630;23.382;2023-05-21T12:48:51;6.65;;;3.90;;
12774;SDS011;6451;42.630;23.382;2023-05-21T12:51:21;8.80;;;4.40;;
12774;SDS011;6451;42.630;23.382;2023-05-21T12:53:50;8.07;;;4.25;;
12774;SDS011;6451;42.630;23.382;2023-05-21T12:56:18;7.35;;;4.32;;
12774;SDS011;6451;42.630;23.382;2023-05-21T12:58:48;6.60;;;4.70;;
12774;SDS011;6451;42.630;23.382;2023-05-21T13:01:15;6.60;;;4.57;;
12774;SDS011;6451;42.630;23.382;2023-05-21T13:03:43;4.75;;;4.25;;
12774;SDS011;6451;42.630;23.382;2023-05-21T13:06:11;5.15;;;3.90;;
12774;SDS011;6451;42.630;23.382;2023-05-21T13:08:38;6.43;;;4.30;;
12774;SDS011;6451;42.630;23.382;2023-05-21T13:11:07;9.57;;;4.18;;
12774;SDS011;6451;42.630;23.382;2023-05-21T13:13:34;6.70;;;4.30;;
12774;SDS011;6451;42.630;23.382;2023-05-21T13:16:00;6.70;;;4.47;;
12774;SDS011;6451;42.630;23.382;2023-05-21T13:18:27;7.57;;;4.30;;
12774;SDS011;6451;42.630;23.382;2023-05-21T13:20:54;9.60;;;4.40;;
12774;SDS011;6451;42.630;23.382;2023-05-21T13:23:22;9.25;;;4.45;;
12774;SDS011;6451;42.630;23.382;2023-05-21T13:25:49;7.05;;;4.50;;
12774;SDS011;6451;42.630;23.382;2023-05-21T13:28:19;5.68;;;4.00;;
12774;SDS011;6451;42.630;23.382;2023-05-21T13:30:47;6.10;;;4.50;;
12774;SDS011;6451;42.630;23.382;2023-05-21T13:33:16;8.20;;;4.60;;
12774;SDS011;6451;42.630;23.382;2023-05-21T13:35:43;8.27;;;4.20;;
12774;SDS011;6451;42.630;23.382;2023-05-21T13:38:15;10.05;;;3.85;;
12774;SDS011;6451;42.630;23.382;2023-05-21T13:40:42;5.43;;;4.43;;
12774;SDS011;6451;42.630;23.382;2023-05-21T13:43:09;7.97;;;4.10;;
12774;SDS011;6451;42.630;23.382;2023-05-21T13:45:38;5.82;;;3.95;;
12774;SDS011;6451;42.630;23.382;2023-05-21T13:48:05;7.85;;;3.72;;
12774;SDS011;6451;42.630;23.382;2023-05-21T13:50:32;9.57;;;4.32;;
12774;SDS011;6451;42.630;23.382;2023-05-21T13:52:59;7.30;;;4.00;;
12774;SDS011;6451;42.630;23.382;2023-05-21T13:55:26;6.82;;;3.95;;
12774;SDS011;6451;42.630;23.382;2023-05-21T13:57:52;7.05;;;4.07;;
12774;SDS011;6451;42.630;23.382;2023-05-21T14:00:20;7.38;;;4.30;;
12774;SDS011;6451;42.630;23.382;2023-05-21T14:02:49;9.80;;;4.00;;
12774;SDS011;6451;42.630;23.382;2023-05-21T14:05:16;6.60;;;3.90;;
12774;SDS011;6451;42.630;23.382;2023-05-21T14:07:43;7.82;;;4.32;;
12774;SDS011;6451;42.630;23.382;2023-05-21T14:10:12;6.75;;;4.93;;
12774;SDS011;6451;42.630;23.382;2023-05-21T14:12:39;6.47;;;4.20;;
12774;SDS011;6451;42.630;23.382;2023-05-21T14:15:07;4.57;;;3.70;;
12774;SDS011;6451;42.630;23.382;2023-05-21T14:17:34;6.80;;;4.18;;
12774;SDS011;6451;42.630;23.382;2023-05-21T14:20:02;8.02;;;4.32;;
12774;SDS011;6451;42.630;23.382;2023-05-21T14:22:30;8.68;;;4.32;;
12774;SDS011;6451;42.630;23.382;2023-05-21T14:24:57;8.63;;;4.30;;
12774;SDS011;6451;42.630;23.382;2023-05-21T14:27:24;6.93;;;4.30;;
12774;SDS011;6451;42.630;23.382;2023-05-21T14:29:50;6.55;;;4.30;;
12774;SDS011;6451;42.630;23.382;2023-05-21T14:32:17;7.40;;;4.28;;
12774;SDS011;6451;42.630;23.382;2023-05-21T14:34:45;8.32;;;4.20;;
12774;SDS011;6451;42.630;23.382;2023-05-21T14:37:14;9.05;;;6.15;;
12774;SDS011;6451;42.630;23.382;2023-05-21T14:39:41;9.20;;;4.40;;
12774;SDS011;6451;42.630;23.382;2023-05-21T14:42:14;8.13;;;4.60;;
12774;SDS011;6451;42.630;23.382;2023-05-21T14:44:41;4.30;;;3.90;;
12774;SDS011;6451;42.630;23.382;2023-05-21T14:47:08;7.28;;;4.35;;
12774;SDS011;6451;42.630;23.382;2023-05-21T14:49:42;10.95;;;4.40;;
12774;SDS011;6451;42.630;23.382;2023-05-21T14:52:09;9.85;;;4.07;;
12774;SDS011;6451;42.630;23.382;2023-05-21T14:54:41;4.40;;;3.88;;
12774;SDS011;6451;42.630;23.382;2023-05-21T14:57:09;8.30;;;4.30;;
12774;SDS011;6451;42.630;23.382;2023-05-21T14:59:39;8.90;;;4.55;;